sensor_id;sensor_type;location;lat;lon;timestamp;P1;durP1;ratioP1;P2;durP2;ratioP2
81908;SDS011;71372;43.514;1.512;2024-02-04T00:00:44;39.80;;;18.33;;
81908;SDS011;71372;43.514;1.512;2024-02-04T00:03:10;42.60;;;19.92;;
81908;SDS011;71372;43.514;1.512;2024-02-04T00:05:36;46.05;;;18.33;;
81908;SDS011;71372;43.514;1.512;2024-02-04T00:08:02;41.10;;;19.17;;
81908;SDS011;71372;43.514;1.512;2024-02-04T00:10:28;43.97;;;19.42;;
81908;SDS011;71372;43.514;1.512;2024-02-04T00:12:54;46.35;;;21.08;;
81908;SDS011;71372;43.514;1.512;2024-02-04T00:15:20;45.80;;;20.13;;
81908;SDS011;71372;43.514;1.512;2024-02-04T00:17:46;45.47;;;19.42;;
81908;SDS011;71372;43.514;1.512;2024-02-04T00:20:15;44.50;;;18.80;;
81908;SDS011;71372;43.514;1.512;2024-02-04T00:22:41;46.70;;;19.63;;
81908;SDS011;71372;43.514;1.512;2024-02-04T00:25:07;49.35;;;20.00;;
81908;SDS011;71372;43.514;1.512;2024-02-04T00:27:37;47.30;;;20.58;;
81908;SDS011;71372;43.514;1.512;2024-02-04T00:30:03;37.50;;;15.48;;
81908;SDS011;71372;43.514;1.512;2024-02-04T00:32:29;52.17;;;20.75;;
81908;SDS011;71372;43.514;1.512;2024-02-04T00:34:55;47.53;;;19.33;;
81908;SDS011;71372;43.514;1.512;2024-02-04T00:37:21;44.60;;;19.00;;
81908;SDS011;71372;43.514;1.512;2024-02-04T00:39:47;43.17;;;18.58;;
81908;SDS011;71372;43.514;1.512;2024-02-04T00:42:13;39.08;;;16.38;;
81908;SDS011;71372;43.514;1.512;2024-02-04T00:44:39;44.53;;;18.60;;
81908;SDS011;71372;43.514;1.512;2024-02-04T00:47:05;42.65;;;17.65;;
81908;SDS011;71372;43.514;1.512;2024-02-04T00:49:31;50.08;;;19.75;;
81908;SDS011;71372;43.514;1.512;2024-02-04T00:51:57;47.30;;;19.00;;
81908;SDS011;71372;43.514;1.512;2024-02-04T00:54:23;29.67;;;11.98;;
81908;SDS011;71372;43.514;1.512;2024-02-04T00:56:49;45.08;;;19.55;;
81908;SDS011;71372;43.514;1.512;2024-02-04T00:59:15;42.55;;;17.27;;
81908;SDS011;71372;43.514;1.512;2024-02-04T01:01:41;43.78;;;18.70;;
81908;SDS011;71372;43.514;1.512;2024-02-04T01:04:08;49.03;;;19.60;;
81908;SDS011;71372;43.514;1.512;2024-02-04T01:06:33;39.33;;;15.25;;
81908;SDS011;71372;43.514;1.512;2024-02-04T01:08:59;43.55;;;17.58;;
81908;SDS011;71372;43.514;1.512;2024-02-04T01:11:25;45.25;;;18.98;;
81908;SDS011;71372;43.514;1.512;2024-02-04T01:13:51;52.88;;;21.13;;
81908;SDS011;71372;43.514;1.512;2024-02-04T01:16:17;48.88;;;19.25;;
81908;SDS011;71372;43.514;1.512;2024-02-04T01:18:43;50.15;;;20.42;;
81908;SDS011;71372;43.514;1.512;2024-02-04T01:21:09;51.05;;;21.10;;
81908;SDS011;71372;43.514;1.512;2024-02-04T01:23:35;50.35;;;20.65;;
81908;SDS011;71372;43.514;1.512;2024-02-04T01:26:01;45.55;;;19.00;;
81908;SDS011;71372;43.514;1.512;2024-02-04T01:28:27;44.53;;;18.08;;
81908;SDS011;71372;43.514;1.512;2024-02-04T01:30:53;47.15;;;19.98;;
81908;SDS011;71372;43.514;1.512;2024-02-04T01:33:19;42.15;;;17.10;;
81908;SDS011;71372;43.514;1.512;2024-02-04T01:35:44;42.72;;;16.38;;
81908;SDS011;71372;43.514;1.512;2024-02-04T01:38:10;42.72;;;17.15;;
81908;SDS011;71372;43.514;1.512;2024-02-04T01:40:36;43.85;;;17.88;;
81908;SDS011;71372;43.514;1.512;2024-02-04T01:43:02;44.92;;;18.25;;
81908;SDS011;71372;43.514;1.512;2024-02-04T01:45:28;46.78;;;20.58;;
81908;SDS011;71372;43.514;1.512;2024-02-04T01:47:54;48.47;;;19.88;;
81908;SDS011;71372;43.514;1.512;2024-02-04T01:50:20;48.08;;;19.23;;
81908;SDS011;71372;43.514;1.512;2024-02-04T01:52:47;45.75;;;19.15;;
81908;SDS011;71372;43.514;1.512;2024-02-04T01:55:15;45.40;;;19.15;;
81908;SDS011;71372;43.514;1.512;2024-02-04T01:57:41;45.15;;;18.02;;
81908;SDS011;71372;43.514;1.512;2024-02-04T02:00:08;46.08;;;19.20;;
81908;SDS011;71372;43.514;1.512;2024-02-04T02:02:38;47.22;;;19.25;;
81908;SDS011;71372;43.514;1.512;2024-02-04T02:05:05;45.75;;;19.13;;
81908;SDS011;71372;43.514;1.512;2024-02-04T02:07:32;46.08;;;17.83;;
81908;SDS011;71372;43.514;1.512;2024-02-04T02:09:58;45.28;;;18.15;;
81908;SDS011;71372;43.514;1.512;2024-02-04T02:12:30;44.42;;;18.33;;
81908;SDS011;71372;43.514;1.512;2024-02-04T02:15:48;40.47;;;15.68;;
81908;SDS011;71372;43.514;1.512;2024-02-04T02:17:57;43.88;;;18.88;;
81908;SDS011;71372;43.514;1.512;2024-02-04T02:23:03;44.70;;;17.88;;
81908;SDS011;71372;43.514;1.512;2024-02-04T02:25:33;43.10;;;17.75;;
81908;SDS011;71372;43.514;1.512;2024-02-04T02:28:01;46.85;;;18.92;;
81908;SDS011;71372;43.514;1.512;2024-02-04T02:30:27;49.15;;;19.85;;
81908;SDS011;71372;43.514;1.512;2024-02-04T02:32:53;50.92;;;20.30;;
81908;SDS011;71372;43.514;1.512;2024-02-04T02:35:20;52.17;;;19.45;;
81908;SDS011;71372;43.514;1.512;2024-02-04T02:38:49;53.40;;;21.33;;
81908;SDS011;71372;43.514;1.512;2024-02-04T02:41:06;53.13;;;21.98;;
81908;SDS011;71372;43.514;1.512;2024-02-04T02:43:34;51.38;;;19.70;;
81908;SDS011;71372;43.514;1.512;2024-02-04T02:46:01;50.50;;;21.15;;
81908;SDS011;71372;43.514;1.512;2024-02-04T02:48:28;57.17;;;20.73;;
81908;SDS011;71372;43.514;1.512;2024-02-04T02:50:54;55.40;;;20.45;;
81908;SDS011;71372;43.514;1.512;2024-02-04T02:53:20;53.47;;;21.65;;
81908;SDS011;71372;43.514;1.512;2024-02-04T02:55:46;53.03;;;19.77;;
81908;SDS011;71372;43.514;1.512;2024-02-04T02:58:12;53.13;;;19.75;;
81908;SDS011;71372;43.514;1.512;2024-02-04T03:00:39;56.05;;;20.52;;
81908;SDS011;71372;43.514;1.512;2024-02-04T03:03:05;56.78;;;19.60;;
81908;SDS011;71372;43.514;1.512;2024-02-04T03:05:31;53.35;;;18.73;;
81908;SDS011;71372;43.514;1.512;2024-02-04T03:07:58;53.75;;;18.08;;
81908;SDS011;71372;43.514;1.512;2024-02-04T03:10:24;48.22;;;16.55;;
81908;SDS011;71372;43.514;1.512;2024-02-04T03:12:50;57.40;;;19.50;;
81908;SDS011;71372;43.514;1.512;2024-02-04T03:15:16;54.22;;;19.92;;
81908;SDS011;71372;43.514;1.512;2024-02-04T03:17:42;50.83;;;18.25;;
81908;SDS011;71372;43.514;1.512;2024-02-04T03:20:09;46.38;;;16.48;;
81908;SDS011;71372;43.514;1.512;2024-02-04T03:22:35;42.88;;;14.50;;
81908;SDS011;71372;43.514;1.512;2024-02-04T03:25:01;41.45;;;16.00;;
81908;SDS011;71372;43.514;1.512;2024-02-04T03:27:27;43.90;;;13.48;;
81908;SDS011;71372;43.514;1.512;2024-02-04T03:29:53;38.08;;;14.00;;
81908;SDS011;71372;43.514;1.512;2024-02-04T03:32:19;43.65;;;15.15;;
81908;SDS011;71372;43.514;1.512;2024-02-04T03:34:45;36.50;;;12.68;;
81908;SDS011;71372;43.514;1.512;2024-02-04T03:37:11;41.20;;;15.20;;
81908;SDS011;71372;43.514;1.512;2024-02-04T03:39:37;39.08;;;14.48;;
81908;SDS011;71372;43.514;1.512;2024-02-04T03:42:03;43.50;;;15.60;;
81908;SDS011;71372;43.514;1.512;2024-02-04T03:44:29;41.88;;;15.68;;
81908;SDS011;71372;43.514;1.512;2024-02-04T03:46:55;37.35;;;13.57;;
81908;SDS011;71372;43.514;1.512;2024-02-04T03:49:21;45.60;;;14.38;;
81908;SDS011;71372;43.514;1.512;2024-02-04T03:51:46;40.80;;;14.15;;
81908;SDS011;71372;43.514;1.512;2024-02-04T03:54:13;38.88;;;14.00;;
81908;SDS011;71372;43.514;1.512;2024-02-04T03:56:39;38.67;;;14.05;;
81908;SDS011;71372;43.514;1.512;2024-02-04T03:59:05;34.97;;;13.38;;
81908;SDS011;71372;43.514;1.512;2024-02-04T04:01:32;36.78;;;13.73;;
81908;SDS011;71372;43.514;1.512;2024-02-04T04:03:59;38.40;;;13.27;;
81908;SDS011;71372;43.514;1.512;2024-02-04T04:06:25;37.63;;;13.68;;
81908;SDS011;71372;43.514;1.512;2024-02-04T04:08:51;39.95;;;13.35;;
81908;SDS011;71372;43.514;1.512;2024-02-04T04:11:17;35.33;;;13.80;;
81908;SDS011;71372;43.514;1.512;2024-02-04T04:13:42;40.78;;;14.10;;
81908;SDS011;71372;43.514;1.512;2024-02-04T04:16:08;39.42;;;13.85;;
81908;SDS011;71372;43.514;1.512;2024-02-04T04:18:34;35.85;;;13.63;;
81908;SDS011;71372;43.514;1.512;2024-02-04T04:21:01;31.60;;;12.18;;
81908;SDS011;71372;43.514;1.512;2024-02-04T04:23:27;38.40;;;14.20;;
81908;SDS011;71372;43.514;1.512;2024-02-04T04:25:52;34.53;;;13.48;;
81908;SDS011;71372;43.514;1.512;2024-02-04T04:28:18;38.60;;;14.00;;
81908;SDS011;71372;43.514;1.512;2024-02-04T04:30:44;41.78;;;15.00;;
81908;SDS011;71372;43.514;1.512;2024-02-04T04:33:10;42.70;;;15.80;;
81908;SDS011;71372;43.514;1.512;2024-02-04T04:35:37;42.65;;;15.55;;
81908;SDS011;71372;43.514;1.512;2024-02-04T04:38:04;39.50;;;14.25;;
81908;SDS011;71372;43.514;1.512;2024-02-04T04:40:29;38.55;;;14.60;;
81908;SDS011;71372;43.514;1.512;2024-02-04T04:42:57;46.28;;;15.45;;
81908;SDS011;71372;43.514;1.512;2024-02-04T04:45:23;40.13;;;15.10;;
81908;SDS011;71372;43.514;1.512;2024-02-04T04:47:49;46.63;;;14.68;;
81908;SDS011;71372;43.514;1.512;2024-02-04T04:50:15;40.47;;;14.25;;
81908;SDS011;71372;43.514;1.512;2024-02-04T04:52:41;42.78;;;14.40;;
81908;SDS011;71372;43.514;1.512;2024-02-04T04:55:07;46.58;;;16.58;;
81908;SDS011;71372;43.514;1.512;2024-02-04T04:57:33;46.58;;;16.30;;
81908;SDS011;71372;43.514;1.512;2024-02-04T04:59:59;46.67;;;15.40;;
81908;SDS011;71372;43.514;1.512;2024-02-04T05:02:29;42.97;;;15.57;;
81908;SDS011;71372;43.514;1.512;2024-02-04T05:04:55;44.53;;;15.77;;
81908;SDS011;71372;43.514;1.512;2024-02-04T05:07:21;45.50;;;15.88;;
81908;SDS011;71372;43.514;1.512;2024-02-04T05:09:47;43.78;;;14.68;;
81908;SDS011;71372;43.514;1.512;2024-02-04T05:12:13;40.90;;;14.88;;
81908;SDS011;71372;43.514;1.512;2024-02-04T05:14:39;48.33;;;16.05;;
81908;SDS011;71372;43.514;1.512;2024-02-04T05:17:05;46.83;;;15.68;;
81908;SDS011;71372;43.514;1.512;2024-02-04T05:19:31;44.38;;;15.68;;
81908;SDS011;71372;43.514;1.512;2024-02-04T05:21:57;46.00;;;16.73;;
81908;SDS011;71372;43.514;1.512;2024-02-04T05:24:23;46.38;;;17.08;;
81908;SDS011;71372;43.514;1.512;2024-02-04T05:26:49;45.13;;;16.42;;
81908;SDS011;71372;43.514;1.512;2024-02-04T05:29:15;46.95;;;16.15;;
81908;SDS011;71372;43.514;1.512;2024-02-04T05:31:43;46.60;;;17.25;;
81908;SDS011;71372;43.514;1.512;2024-02-04T05:34:10;45.20;;;16.15;;
81908;SDS011;71372;43.514;1.512;2024-02-04T05:36:36;49.17;;;16.77;;
81908;SDS011;71372;43.514;1.512;2024-02-04T05:39:08;49.70;;;17.73;;
81908;SDS011;71372;43.514;1.512;2024-02-04T05:41:36;48.97;;;16.48;;
81908;SDS011;71372;43.514;1.512;2024-02-04T05:44:02;45.53;;;15.05;;
81908;SDS011;71372;43.514;1.512;2024-02-04T05:46:28;47.10;;;16.00;;
81908;SDS011;71372;43.514;1.512;2024-02-04T05:48:54;52.97;;;18.00;;
81908;SDS011;71372;43.514;1.512;2024-02-04T05:51:20;52.00;;;17.88;;
81908;SDS011;71372;43.514;1.512;2024-02-04T05:53:46;48.67;;;16.75;;
81908;SDS011;71372;43.514;1.512;2024-02-04T05:56:13;51.13;;;18.30;;
81908;SDS011;71372;43.514;1.512;2024-02-04T05:58:39;50.38;;;17.20;;
81908;SDS011;71372;43.514;1.512;2024-02-04T06:01:05;50.10;;;16.95;;
81908;SDS011;71372;43.514;1.512;2024-02-04T06:03:31;49.72;;;17.10;;
81908;SDS011;71372;43.514;1.512;2024-02-04T06:05:57;53.03;;;17.35;;
81908;SDS011;71372;43.514;1.512;2024-02-04T06:08:23;49.72;;;16.65;;
81908;SDS011;71372;43.514;1.512;2024-02-04T06:10:49;50.20;;;17.15;;
81908;SDS011;71372;43.514;1.512;2024-02-04T06:13:15;45.33;;;14.95;;
81908;SDS011;71372;43.514;1.512;2024-02-04T06:15:41;49.13;;;16.23;;
81908;SDS011;71372;43.514;1.512;2024-02-04T06:18:07;48.47;;;17.20;;
81908;SDS011;71372;43.514;1.512;2024-02-04T06:20:32;48.38;;;16.95;;
81908;SDS011;71372;43.514;1.512;2024-02-04T06:22:58;46.45;;;16.83;;
81908;SDS011;71372;43.514;1.512;2024-02-04T06:25:24;44.70;;;14.48;;
81908;SDS011;71372;43.514;1.512;2024-02-04T06:27:50;47.72;;;15.85;;
81908;SDS011;71372;43.514;1.512;2024-02-04T06:30:16;36.90;;;13.30;;
81908;SDS011;71372;43.514;1.512;2024-02-04T06:32:42;50.08;;;17.98;;
81908;SDS011;71372;43.514;1.512;2024-02-04T06:35:08;51.13;;;17.40;;
81908;SDS011;71372;43.514;1.512;2024-02-04T06:37:34;56.00;;;18.33;;
81908;SDS011;71372;43.514;1.512;2024-02-04T06:40:00;48.95;;;16.92;;
81908;SDS011;71372;43.514;1.512;2024-02-04T06:42:26;52.85;;;18.30;;
81908;SDS011;71372;43.514;1.512;2024-02-04T06:44:52;52.10;;;15.70;;
81908;SDS011;71372;43.514;1.512;2024-02-04T06:47:18;50.97;;;15.98;;
81908;SDS011;71372;43.514;1.512;2024-02-04T06:49:44;49.08;;;15.38;;
81908;SDS011;71372;43.514;1.512;2024-02-04T06:52:13;53.95;;;16.67;;
81908;SDS011;71372;43.514;1.512;2024-02-04T06:54:39;44.30;;;14.32;;
81908;SDS011;71372;43.514;1.512;2024-02-04T06:57:05;44.08;;;13.55;;
81908;SDS011;71372;43.514;1.512;2024-02-04T06:59:31;44.67;;;14.30;;
81908;SDS011;71372;43.514;1.512;2024-02-04T07:01:57;51.63;;;15.23;;
81908;SDS011;71372;43.514;1.512;2024-02-04T07:04:23;51.22;;;13.32;;
81908;SDS011;71372;43.514;1.512;2024-02-04T07:06:50;47.20;;;14.45;;
81908;SDS011;71372;43.514;1.512;2024-02-04T07:09:17;48.85;;;14.55;;
81908;SDS011;71372;43.514;1.512;2024-02-04T07:11:43;44.08;;;12.63;;
81908;SDS011;71372;43.514;1.512;2024-02-04T07:14:09;44.40;;;14.30;;
81908;SDS011;71372;43.514;1.512;2024-02-04T07:16:35;45.15;;;14.18;;
81908;SDS011;71372;43.514;1.512;2024-02-04T07:19:01;52.92;;;14.30;;
81908;SDS011;71372;43.514;1.512;2024-02-04T07:21:27;47.45;;;14.75;;
81908;SDS011;71372;43.514;1.512;2024-02-04T07:23:52;45.60;;;15.30;;
81908;SDS011;71372;43.514;1.512;2024-02-04T07:26:18;48.72;;;14.00;;
81908;SDS011;71372;43.514;1.512;2024-02-04T07:28:44;63.40;;;13.98;;
81908;SDS011;71372;43.514;1.512;2024-02-04T07:31:10;50.92;;;14.88;;
81908;SDS011;71372;43.514;1.512;2024-02-04T07:33:36;49.28;;;14.30;;
81908;SDS011;71372;43.514;1.512;2024-02-04T07:36:02;47.03;;;14.90;;
81908;SDS011;71372;43.514;1.512;2024-02-04T07:38:28;50.20;;;15.80;;
81908;SDS011;71372;43.514;1.512;2024-02-04T07:40:54;58.80;;;13.25;;
81908;SDS011;71372;43.514;1.512;2024-02-04T07:43:22;60.22;;;15.30;;
81908;SDS011;71372;43.514;1.512;2024-02-04T07:45:47;53.75;;;14.98;;
81908;SDS011;71372;43.514;1.512;2024-02-04T07:48:13;61.20;;;16.92;;
81908;SDS011;71372;43.514;1.512;2024-02-04T07:50:39;63.47;;;16.45;;
81908;SDS011;71372;43.514;1.512;2024-02-04T07:53:05;58.42;;;14.52;;
81908;SDS011;71372;43.514;1.512;2024-02-04T07:55:31;57.47;;;14.43;;
81908;SDS011;71372;43.514;1.512;2024-02-04T07:57:57;51.85;;;14.95;;
81908;SDS011;71372;43.514;1.512;2024-02-04T08:00:23;52.50;;;15.95;;
81908;SDS011;71372;43.514;1.512;2024-02-04T08:02:49;57.92;;;15.80;;
81908;SDS011;71372;43.514;1.512;2024-02-04T08:05:15;85.03;;;17.23;;
81908;SDS011;71372;43.514;1.512;2024-02-04T08:07:41;58.42;;;16.15;;
81908;SDS011;71372;43.514;1.512;2024-02-04T08:10:07;60.70;;;15.05;;
81908;SDS011;71372;43.514;1.512;2024-02-04T08:12:33;50.72;;;16.23;;
81908;SDS011;71372;43.514;1.512;2024-02-04T08:14:59;64.78;;;16.52;;
81908;SDS011;71372;43.514;1.512;2024-02-04T08:17:26;49.03;;;14.57;;
81908;SDS011;71372;43.514;1.512;2024-02-04T08:19:54;53.45;;;15.73;;
81908;SDS011;71372;43.514;1.512;2024-02-04T08:22:20;50.72;;;13.48;;
81908;SDS011;71372;43.514;1.512;2024-02-04T08:24:46;42.95;;;14.65;;
81908;SDS011;71372;43.514;1.512;2024-02-04T08:27:12;51.55;;;15.65;;
81908;SDS011;71372;43.514;1.512;2024-02-04T08:29:41;68.10;;;14.57;;
81908;SDS011;71372;43.514;1.512;2024-02-04T08:32:08;42.15;;;12.52;;
81908;SDS011;71372;43.514;1.512;2024-02-04T08:34:34;57.28;;;13.88;;
81908;SDS011;71372;43.514;1.512;2024-02-04T08:37:00;64.03;;;14.27;;
81908;SDS011;71372;43.514;1.512;2024-02-04T08:39:25;70.57;;;14.73;;
81908;SDS011;71372;43.514;1.512;2024-02-04T08:41:52;63.15;;;15.02;;
81908;SDS011;71372;43.514;1.512;2024-02-04T08:44:18;67.28;;;14.82;;
81908;SDS011;71372;43.514;1.512;2024-02-04T08:46:44;50.17;;;15.27;;
81908;SDS011;71372;43.514;1.512;2024-02-04T08:49:10;47.92;;;14.50;;
81908;SDS011;71372;43.514;1.512;2024-02-04T08:51:35;55.20;;;15.55;;
81908;SDS011;71372;43.514;1.512;2024-02-04T08:54:02;50.78;;;15.20;;
81908;SDS011;71372;43.514;1.512;2024-02-04T08:56:28;67.07;;;14.63;;
81908;SDS011;71372;43.514;1.512;2024-02-04T08:58:54;47.25;;;12.45;;
81908;SDS011;71372;43.514;1.512;2024-02-04T09:01:20;47.30;;;13.15;;
81908;SDS011;71372;43.514;1.512;2024-02-04T09:03:46;47.00;;;13.45;;
81908;SDS011;71372;43.514;1.512;2024-02-04T09:06:12;48.47;;;13.52;;
81908;SDS011;71372;43.514;1.512;2024-02-04T09:08:38;51.10;;;14.13;;
81908;SDS011;71372;43.514;1.512;2024-02-04T09:11:03;48.67;;;15.88;;
81908;SDS011;71372;43.514;1.512;2024-02-04T09:13:29;51.90;;;15.52;;
81908;SDS011;71372;43.514;1.512;2024-02-04T09:15:55;43.70;;;13.18;;
81908;SDS011;71372;43.514;1.512;2024-02-04T09:18:21;47.20;;;15.35;;
81908;SDS011;71372;43.514;1.512;2024-02-04T09:20:47;53.03;;;15.48;;
81908;SDS011;71372;43.514;1.512;2024-02-04T09:23:13;46.60;;;15.98;;
81908;SDS011;71372;43.514;1.512;2024-02-04T09:25:39;45.83;;;16.45;;
81908;SDS011;71372;43.514;1.512;2024-02-04T09:28:05;50.55;;;15.30;;
81908;SDS011;71372;43.514;1.512;2024-02-04T09:30:31;47.38;;;14.95;;
81908;SDS011;71372;43.514;1.512;2024-02-04T09:32:57;57.47;;;15.32;;
81908;SDS011;71372;43.514;1.512;2024-02-04T09:35:23;42.78;;;14.05;;
81908;SDS011;71372;43.514;1.512;2024-02-04T09:37:49;41.40;;;13.32;;
81908;SDS011;71372;43.514;1.512;2024-02-04T09:40:15;44.92;;;15.80;;
81908;SDS011;71372;43.514;1.512;2024-02-04T09:42:41;49.00;;;14.82;;
81908;SDS011;71372;43.514;1.512;2024-02-04T09:45:07;75.22;;;16.30;;
81908;SDS011;71372;43.514;1.512;2024-02-04T09:47:34;39.83;;;14.98;;
81908;SDS011;71372;43.514;1.512;2024-02-04T09:50:01;42.75;;;14.63;;
81908;SDS011;71372;43.514;1.512;2024-02-04T09:52:28;40.67;;;15.20;;
81908;SDS011;71372;43.514;1.512;2024-02-04T09:55:01;85.90;;;17.02;;
81908;SDS011;71372;43.514;1.512;2024-02-04T09:57:29;45.92;;;15.68;;
81908;SDS011;71372;43.514;1.512;2024-02-04T09:59:58;44.55;;;15.98;;
81908;SDS011;71372;43.514;1.512;2024-02-04T10:02:24;41.42;;;14.15;;
81908;SDS011;71372;43.514;1.512;2024-02-04T10:04:51;42.05;;;15.45;;
81908;SDS011;71372;43.514;1.512;2024-02-04T10:07:17;40.13;;;14.07;;
81908;SDS011;71372;43.514;1.512;2024-02-04T10:09:44;41.35;;;13.55;;
81908;SDS011;71372;43.514;1.512;2024-02-04T10:12:10;43.58;;;14.73;;
81908;SDS011;71372;43.514;1.512;2024-02-04T10:14:36;40.05;;;13.00;;
81908;SDS011;71372;43.514;1.512;2024-02-04T10:17:03;44.25;;;13.05;;
81908;SDS011;71372;43.514;1.512;2024-02-04T10:19:29;39.13;;;14.43;;
81908;SDS011;71372;43.514;1.512;2024-02-04T10:22:02;41.65;;;14.55;;
81908;SDS011;71372;43.514;1.512;2024-02-04T10:24:29;46.05;;;15.10;;
81908;SDS011;71372;43.514;1.512;2024-02-04T10:26:56;41.70;;;15.02;;
81908;SDS011;71372;43.514;1.512;2024-02-04T10:29:22;36.78;;;13.63;;
81908;SDS011;71372;43.514;1.512;2024-02-04T10:31:49;38.85;;;13.77;;
81908;SDS011;71372;43.514;1.512;2024-02-04T10:34:19;39.85;;;14.75;;
81908;SDS011;71372;43.514;1.512;2024-02-04T10:36:45;33.45;;;13.60;;
81908;SDS011;71372;43.514;1.512;2024-02-04T10:39:11;34.20;;;13.18;;
81908;SDS011;71372;43.514;1.512;2024-02-04T10:41:39;31.17;;;11.55;;
81908;SDS011;71372;43.514;1.512;2024-02-04T10:44:16;35.20;;;13.13;;
81908;SDS011;71372;43.514;1.512;2024-02-04T10:46:44;36.45;;;13.13;;
81908;SDS011;71372;43.514;1.512;2024-02-04T10:49:13;35.22;;;14.15;;
81908;SDS011;71372;43.514;1.512;2024-02-04T10:51:40;36.88;;;13.85;;
81908;SDS011;71372;43.514;1.512;2024-02-04T10:54:08;40.15;;;13.68;;
81908;SDS011;71372;43.514;1.512;2024-02-04T10:56:42;36.95;;;14.60;;
81908;SDS011;71372;43.514;1.512;2024-02-04T10:59:14;36.35;;;14.60;;
81908;SDS011;71372;43.514;1.512;2024-02-04T11:01:45;38.10;;;14.40;;
81908;SDS011;71372;43.514;1.512;2024-02-04T11:04:13;40.00;;;15.32;;
81908;SDS011;71372;43.514;1.512;2024-02-04T11:06:40;39.17;;;14.90;;
81908;SDS011;71372;43.514;1.512;2024-02-04T11:09:11;35.35;;;14.00;;
81908;SDS011;71372;43.514;1.512;2024-02-04T11:11:39;35.35;;;13.63;;
81908;SDS011;71372;43.514;1.512;2024-02-04T11:14:08;38.53;;;14.75;;
81908;SDS011;71372;43.514;1.512;2024-02-04T11:28:00;34.22;;;13.88;;
81908;SDS011;71372;43.514;1.512;2024-02-04T11:30:27;36.85;;;15.00;;
81908;SDS011;71372;43.514;1.512;2024-02-04T11:32:53;34.03;;;12.50;;
81908;SDS011;71372;43.514;1.512;2024-02-04T11:35:19;32.55;;;14.32;;
81908;SDS011;71372;43.514;1.512;2024-02-04T11:37:46;30.65;;;11.80;;
81908;SDS011;71372;43.514;1.512;2024-02-04T11:40:15;32.47;;;12.48;;
81908;SDS011;71372;43.514;1.512;2024-02-04T11:42:42;36.97;;;15.13;;
81908;SDS011;71372;43.514;1.512;2024-02-04T11:45:11;31.25;;;14.63;;
81908;SDS011;71372;43.514;1.512;2024-02-04T11:47:39;32.05;;;13.80;;
81908;SDS011;71372;43.514;1.512;2024-02-04T11:50:05;30.45;;;12.80;;
81908;SDS011;71372;43.514;1.512;2024-02-04T11:52:32;30.98;;;12.32;;
81908;SDS011;71372;43.514;1.512;2024-02-04T11:54:58;31.80;;;12.93;;
81908;SDS011;71372;43.514;1.512;2024-02-04T11:57:24;29.08;;;11.25;;
81908;SDS011;71372;43.514;1.512;2024-02-04T11:59:51;28.70;;;12.10;;
81908;SDS011;71372;43.514;1.512;2024-02-04T12:02:20;28.70;;;12.73;;
81908;SDS011;71372;43.514;1.512;2024-02-04T12:04:47;28.95;;;12.27;;
81908;SDS011;71372;43.514;1.512;2024-02-04T12:07:14;28.95;;;12.02;;
81908;SDS011;71372;43.514;1.512;2024-02-04T12:09:40;27.75;;;12.02;;
81908;SDS011;71372;43.514;1.512;2024-02-04T12:12:07;29.35;;;12.80;;
81908;SDS011;71372;43.514;1.512;2024-02-04T12:14:37;27.73;;;12.75;;
81908;SDS011;71372;43.514;1.512;2024-02-04T12:17:08;28.02;;;12.63;;
81908;SDS011;71372;43.514;1.512;2024-02-04T12:19:35;27.65;;;13.20;;
81908;SDS011;71372;43.514;1.512;2024-02-04T12:22:02;28.85;;;13.13;;
81908;SDS011;71372;43.514;1.512;2024-02-04T12:24:35;25.80;;;11.57;;
81908;SDS011;71372;43.514;1.512;2024-02-04T12:27:03;26.60;;;11.65;;
81908;SDS011;71372;43.514;1.512;2024-02-04T12:29:30;25.33;;;11.32;;
81908;SDS011;71372;43.514;1.512;2024-02-04T12:32:02;28.02;;;11.55;;
81908;SDS011;71372;43.514;1.512;2024-02-04T12:34:29;24.10;;;11.68;;
81908;SDS011;71372;43.514;1.512;2024-02-04T12:36:58;27.58;;;12.68;;
81908;SDS011;71372;43.514;1.512;2024-02-04T12:39:28;28.23;;;13.77;;
81908;SDS011;71372;43.514;1.512;2024-02-04T12:41:58;22.45;;;9.98;;
81908;SDS011;71372;43.514;1.512;2024-02-04T12:44:24;22.25;;;10.88;;
81908;SDS011;71372;43.514;1.512;2024-02-04T12:46:51;26.40;;;12.23;;
81908;SDS011;71372;43.514;1.512;2024-02-04T12:49:20;19.50;;;9.32;;
81908;SDS011;71372;43.514;1.512;2024-02-04T12:51:47;26.10;;;12.35;;
81908;SDS011;71372;43.514;1.512;2024-02-04T12:54:14;26.92;;;10.90;;
81908;SDS011;71372;43.514;1.512;2024-02-04T12:56:47;24.02;;;11.40;;
81908;SDS011;71372;43.514;1.512;2024-02-04T12:59:32;23.17;;;12.40;;
81908;SDS011;71372;43.514;1.512;2024-02-04T13:02:02;25.00;;;12.63;;
81908;SDS011;71372;43.514;1.512;2024-02-04T13:04:35;24.23;;;12.05;;
81908;SDS011;71372;43.514;1.512;2024-02-04T13:07:05;21.92;;;10.85;;
81908;SDS011;71372;43.514;1.512;2024-02-04T13:09:32;17.52;;;9.13;;
81908;SDS011;71372;43.514;1.512;2024-02-04T13:12:05;22.05;;;10.63;;
81908;SDS011;71372;43.514;1.512;2024-02-04T13:14:37;20.48;;;10.82;;
81908;SDS011;71372;43.514;1.512;2024-02-04T13:17:06;20.23;;;10.55;;
81908;SDS011;71372;43.514;1.512;2024-02-04T13:19:36;18.60;;;9.70;;
81908;SDS011;71372;43.514;1.512;2024-02-04T13:22:05;19.80;;;10.27;;
81908;SDS011;71372;43.514;1.512;2024-02-04T13:24:32;20.42;;;10.35;;
81908;SDS011;71372;43.514;1.512;2024-02-04T13:26:59;19.25;;;9.48;;
81908;SDS011;71372;43.514;1.512;2024-02-04T13:29:26;17.77;;;9.30;;
81908;SDS011;71372;43.514;1.512;2024-02-04T13:31:52;19.65;;;9.27;;
81908;SDS011;71372;43.514;1.512;2024-02-04T13:34:18;16.73;;;8.68;;
81908;SDS011;71372;43.514;1.512;2024-02-04T13:36:46;14.88;;;8.65;;
81908;SDS011;71372;43.514;1.512;2024-02-04T13:39:13;16.10;;;8.80;;
81908;SDS011;71372;43.514;1.512;2024-02-04T13:41:40;14.77;;;8.68;;
81908;SDS011;71372;43.514;1.512;2024-02-04T13:44:06;14.27;;;8.60;;
81908;SDS011;71372;43.514;1.512;2024-02-04T13:46:32;13.77;;;8.68;;
81908;SDS011;71372;43.514;1.512;2024-02-04T13:48:58;15.18;;;7.35;;
81908;SDS011;71372;43.514;1.512;2024-02-04T13:51:24;14.30;;;7.70;;
81908;SDS011;71372;43.514;1.512;2024-02-04T13:53:50;16.08;;;8.80;;
81908;SDS011;71372;43.514;1.512;2024-02-04T13:56:16;16.88;;;9.23;;
81908;SDS011;71372;43.514;1.512;2024-02-04T13:58:45;15.88;;;9.15;;
81908;SDS011;71372;43.514;1.512;2024-02-04T14:01:11;13.68;;;7.90;;
81908;SDS011;71372;43.514;1.512;2024-02-04T14:03:38;13.20;;;7.90;;
81908;SDS011;71372;43.514;1.512;2024-02-04T14:06:04;17.88;;;9.27;;
81908;SDS011;71372;43.514;1.512;2024-02-04T14:08:30;20.13;;;10.43;;
81908;SDS011;71372;43.514;1.512;2024-02-04T14:10:56;18.33;;;10.00;;
81908;SDS011;71372;43.514;1.512;2024-02-04T14:13:22;14.52;;;8.40;;
81908;SDS011;71372;43.514;1.512;2024-02-04T14:15:48;13.77;;;7.82;;
81908;SDS011;71372;43.514;1.512;2024-02-04T14:18:14;13.88;;;7.97;;
81908;SDS011;71372;43.514;1.512;2024-02-04T14:20:40;10.60;;;6.70;;
81908;SDS011;71372;43.514;1.512;2024-02-04T14:23:06;13.35;;;7.15;;
81908;SDS011;71372;43.514;1.512;2024-02-04T14:25:32;13.05;;;8.50;;
81908;SDS011;71372;43.514;1.512;2024-02-04T14:27:58;13.25;;;7.40;;
81908;SDS011;71372;43.514;1.512;2024-02-04T14:30:24;13.50;;;8.50;;
81908;SDS011;71372;43.514;1.512;2024-02-04T14:32:50;14.75;;;8.45;;
81908;SDS011;71372;43.514;1.512;2024-02-04T14:35:16;12.02;;;7.30;;